sensor_id;sensor_type;location;lat;lon;timestamp;temperature;humidity
39033;DHT22;24794;51.982;5.878;2024-01-30T00:00:16;9.30;99.90
39033;DHT22;24794;51.982;5.878;2024-01-30T00:01:17;9.30;99.90
39033;DHT22;24794;51.982;5.878;2024-01-30T00:02:18;9.20;99.90
39033;DHT22;24794;51.982;5.878;2024-01-30T00:03:18;9.30;99.90
39033;DHT22;24794;51.982;5.878;2024-01-30T00:04:19;9.20;99.90
39033;DHT22;24794;51.982;5.878;2024-01-30T00:05:19;9.20;99.90
39033;DHT22;24794;51.982;5.878;2024-01-30T00:06:20;9.20;99.90
39033;DHT22;24794;51.982;5.878;2024-01-30T00:07:24;9.20;99.90
39033;DHT22;24794;51.982;5.878;2024-01-30T00:08:24;9.20;99.90
39033;DHT22;24794;51.982;5.878;2024-01-30T00:09:25;9.20;99.90
39033;DHT22;24794;51.982;5.878;2024-01-30T00:10:25;9.20;99.90
39033;DHT22;24794;51.982;5.878;2024-01-30T00:11:26;9.20;99.90
39033;DHT22;24794;51.982;5.878;2024-01-30T00:12:26;9.20;99.90
39033;DHT22;24794;51.982;5.878;2024-01-30T00:13:27;9.20;99.90
39033;DHT22;24794;51.982;5.878;2024-01-30T00:14:27;9.20;99.90
39033;DHT22;24794;51.982;5.878;2024-01-30T00:15:28;9.20;99.90
39033;DHT22;24794;51.982;5.878;2024-01-30T00:16:28;9.20;99.90
39033;DHT22;24794;51.982;5.878;2024-01-30T00:17:29;9.20;99.90
39033;DHT22;24794;51.982;5.878;2024-01-30T00:18:30;9.20;99.90
39033;DHT22;24794;51.982;5.878;2024-01-30T00:19:30;9.20;99.90
39033;DHT22;24794;51.982;5.878;2024-01-30T00:20:31;9.10;99.90
39033;DHT22;24794;51.982;5.878;2024-01-30T00:21:31;9.10;99.90
39033;DHT22;24794;51.982;5.878;2024-01-30T00:22:32;9.10;99.90
39033;DHT22;24794;51.982;5.878;2024-01-30T00:23:32;9.10;99.90
39033;DHT22;24794;51.982;5.878;2024-01-30T00:24:33;9.10;99.90
39033;DHT22;24794;51.982;5.878;2024-01-30T00:25:33;9.10;99.90
39033;DHT22;24794;51.982;5.878;2024-01-30T00:26:34;9.10;99.90
39033;DHT22;24794;51.982;5.878;2024-01-30T00:27:34;9.10;99.90
39033;DHT22;24794;51.982;5.878;2024-01-30T00:28:35;9.10;99.90
39033;DHT22;24794;51.982;5.878;2024-01-30T00:29:35;9.10;99.90
39033;DHT22;24794;51.982;5.878;2024-01-30T00:30:36;9.10;99.90
39033;DHT22;24794;51.982;5.878;2024-01-30T00:31:37;9.10;99.90
39033;DHT22;24794;51.982;5.878;2024-01-30T00:32:37;9.10;99.90
39033;DHT22;24794;51.982;5.878;2024-01-30T00:33:41;9.10;99.90
39033;DHT22;24794;51.982;5.878;2024-01-30T00:34:42;9.10;99.90
39033;DHT22;24794;51.982;5.878;2024-01-30T00:35:42;9.10;99.90
39033;DHT22;24794;51.982;5.878;2024-01-30T00:36:43;9.10;99.90
39033;DHT22;24794;51.982;5.878;2024-01-30T00:37:43;9.10;99.90
39033;DHT22;24794;51.982;5.878;2024-01-30T00:38:44;9.10;99.90
39033;DHT22;24794;51.982;5.878;2024-01-30T00:39:45;9.10;99.90
39033;DHT22;24794;51.982;5.878;2024-01-30T00:40:45;9.10;99.90
39033;DHT22;24794;51.982;5.878;2024-01-30T00:41:46;9.10;99.90
39033;DHT22;24794;51.982;5.878;2024-01-30T00:42:46;9.00;99.90
39033;DHT22;24794;51.982;5.878;2024-01-30T00:43:47;9.00;99.90
39033;DHT22;24794;51.982;5.878;2024-01-30T00:44:47;9.00;99.90
39033;DHT22;24794;51.982;5.878;2024-01-30T00:45:48;9.00;99.90
39033;DHT22;24794;51.982;5.878;2024-01-30T00:46:48;9.00;99.90
39033;DHT22;24794;51.982;5.878;2024-01-30T00:47:49;9.00;99.90
39033;DHT22;24794;51.982;5.878;2024-01-30T00:48:49;8.90;99.90
39033;DHT22;24794;51.982;5.878;2024-01-30T00:49:50;8.90;99.90
39033;DHT22;24794;51.982;5.878;2024-01-30T00:50:50;8.90;99.90
39033;DHT22;24794;51.982;5.878;2024-01-30T00:51:51;8.90;99.90
39033;DHT22;24794;51.982;5.878;2024-01-30T00:52:52;8.90;99.90
39033;DHT22;24794;51.982;5.878;2024-01-30T00:53:52;8.90;99.90
39033;DHT22;24794;51.982;5.878;2024-01-30T00:54:53;8.90;99.90
39033;DHT22;24794;51.982;5.878;2024-01-30T00:55:53;8.90;99.90
39033;DHT22;24794;51.982;5.878;2024-01-30T00:56:54;8.80;99.90
39033;DHT22;24794;51.982;5.878;2024-01-30T00:57:54;8.80;99.90
39033;DHT22;24794;51.982;5.878;2024-01-30T00:58:55;8.80;99.90
39033;DHT22;24794;51.982;5.878;2024-01-30T00:59:57;8.80;99.90
39033;DHT22;24794;51.982;5.878;2024-01-30T01:00:57;8.80;99.90
39033;DHT22;24794;51.982;5.878;2024-01-30T01:01:58;8.90;99.90
39033;DHT22;24794;51.982;5.878;2024-01-30T01:02:59;8.80;99.90
39033;DHT22;24794;51.982;5.878;2024-01-30T01:03:59;8.80;99.90
39033;DHT22;24794;51.982;5.878;2024-01-30T01:05:00;8.80;99.90
39033;DHT22;24794;51.982;5.878;2024-01-30T01:06:00;8.90;99.90
39033;DHT22;24794;51.982;5.878;2024-01-30T01:07:01;8.90;99.90
39033;DHT22;24794;51.982;5.878;2024-01-30T01:08:01;8.80;99.90
39033;DHT22;24794;51.982;5.878;2024-01-30T01:09:02;8.80;99.90
39033;DHT22;24794;51.982;5.878;2024-01-30T01:10:04;8.90;99.90
39033;DHT22;24794;51.982;5.878;2024-01-30T01:11:04;8.90;99.90
39033;DHT22;24794;51.982;5.878;2024-01-30T01:12:05;8.80;99.90
39033;DHT22;24794;51.982;5.878;2024-01-30T01:13:06;8.80;99.90
39033;DHT22;24794;51.982;5.878;2024-01-30T01:14:06;8.80;99.90
39033;DHT22;24794;51.982;5.878;2024-01-30T01:15:07;8.80;99.90
39033;DHT22;24794;51.982;5.878;2024-01-30T01:16:11;8.80;99.90
39033;DHT22;24794;51.982;5.878;2024-01-30T01:17:12;8.80;99.90
39033;DHT22;24794;51.982;5.878;2024-01-30T01:18:12;8.80;99.90
39033;DHT22;24794;51.982;5.878;2024-01-30T01:19:13;8.80;99.90
39033;DHT22;24794;51.982;5.878;2024-01-30T01:20:13;8.80;99.90
39033;DHT22;24794;51.982;5.878;2024-01-30T01:21:14;8.80;99.90
39033;DHT22;24794;51.982;5.878;2024-01-30T01:22:16;8.80;99.90
39033;DHT22;24794;51.982;5.878;2024-01-30T01:23:16;8.80;99.90
39033;DHT22;24794;51.982;5.878;2024-01-30T01:24:17;8.80;99.90
39033;DHT22;24794;51.982;5.878;2024-01-30T01:25:17;8.80;99.90
39033;DHT22;24794;51.982;5.878;2024-01-30T01:26:18;8.80;99.90
39033;DHT22;24794;51.982;5.878;2024-01-30T01:27:18;8.80;99.90
39033;DHT22;24794;51.982;5.878;2024-01-30T01:28:19;8.80;99.90
39033;DHT22;24794;51.982;5.878;2024-01-30T01:29:19;8.80;99.90
39033;DHT22;24794;51.982;5.878;2024-01-30T01:30:21;8.80;99.90
39033;DHT22;24794;51.982;5.878;2024-01-30T01:31:22;8.80;99.90
39033;DHT22;24794;51.982;5.878;2024-01-30T01:32:25;8.80;99.90
39033;DHT22;24794;51.982;5.878;2024-01-30T01:33:25;8.80;99.90
39033;DHT22;24794;51.982;5.878;2024-01-30T01:34:26;8.70;99.90
39033;DHT22;24794;51.982;5.878;2024-01-30T01:35:26;8.70;99.90
39033;DHT22;24794;51.982;5.878;2024-01-30T01:36:27;8.70;99.90
39033;DHT22;24794;51.982;5.878;2024-01-30T01:37:28;8.70;99.90
39033;DHT22;24794;51.982;5.878;2024-01-30T01:38:29;8.70;99.90
39033;DHT22;24794;51.982;5.878;2024-01-30T01:39:29;8.80;99.90
39033;DHT22;24794;51.982;5.878;2024-01-30T01:40:30;8.70;99.90
39033;DHT22;24794;51.982;5.878;2024-01-30T01:41:31;8.70;99.90
39033;DHT22;24794;51.982;5.878;2024-01-30T01:42:32;8.70;99.90
39033;DHT22;24794;51.982;5.878;2024-01-30T01:43:33;8.80;99.90
39033;DHT22;24794;51.982;5.878;2024-01-30T01:44:33;8.70;99.90
39033;DHT22;24794;51.982;5.878;2024-01-30T01:45:34;8.70;99.90
39033;DHT22;24794;51.982;5.878;2024-01-30T01:46:35;8.70;99.90
39033;DHT22;24794;51.982;5.878;2024-01-30T01:47:35;8.70;99.90
39033;DHT22;24794;51.982;5.878;2024-01-30T01:48:36;8.70;99.90
39033;DHT22;24794;51.982;5.878;2024-01-30T01:49:37;8.70;99.90
39033;DHT22;24794;51.982;5.878;2024-01-30T01:50:39;8.70;99.90
39033;DHT22;24794;51.982;5.878;2024-01-30T01:51:40;8.70;99.90
39033;DHT22;24794;51.982;5.878;2024-01-30T01:52:41;8.70;99.90
39033;DHT22;24794;51.982;5.878;2024-01-30T01:53:42;8.70;99.90
39033;DHT22;24794;51.982;5.878;2024-01-30T01:54:43;8.70;99.90
39033;DHT22;24794;51.982;5.878;2024-01-30T01:55:45;8.70;99.90
39033;DHT22;24794;51.982;5.878;2024-01-30T01:56:46;8.70;99.90
39033;DHT22;24794;51.982;5.878;2024-01-30T01:57:46;8.70;99.90
39033;DHT22;24794;51.982;5.878;2024-01-30T01:58:47;8.70;99.90
39033;DHT22;24794;51.982;5.878;2024-01-30T01:59:50;8.70;99.90
39033;DHT22;24794;51.982;5.878;2024-01-30T02:00:51;8.70;99.90
39033;DHT22;24794;51.982;5.878;2024-01-30T02:01:52;8.70;99.90
39033;DHT22;24794;51.982;5.878;2024-01-30T02:02:54;8.70;99.90
39033;DHT22;24794;51.982;5.878;2024-01-30T02:03:55;8.80;99.90
39033;DHT22;24794;51.982;5.878;2024-01-30T02:04:57;8.80;99.90
39033;DHT22;24794;51.982;5.878;2024-01-30T02:05:58;8.80;99.90
39033;DHT22;24794;51.982;5.878;2024-01-30T02:06:59;8.70;99.90
39033;DHT22;24794;51.982;5.878;2024-01-30T02:07:59;8.80;99.90
39033;DHT22;24794;51.982;5.878;2024-01-30T02:09:00;8.70;99.90
39033;DHT22;24794;51.982;5.878;2024-01-30T02:10:01;8.80;99.90
39033;DHT22;24794;51.982;5.878;2024-01-30T02:11:01;8.80;99.90
39033;DHT22;24794;51.982;5.878;2024-01-30T02:12:02;8.70;99.90
39033;DHT22;24794;51.982;5.878;2024-01-30T02:13:03;8.70;99.90
39033;DHT22;24794;51.982;5.878;2024-01-30T02:14:05;8.70;99.90
39033;DHT22;24794;51.982;5.878;2024-01-30T02:15:05;8.70;99.90
39033;DHT22;24794;51.982;5.878;2024-01-30T02:16:07;8.70;99.90
39033;DHT22;24794;51.982;5.878;2024-01-30T02:17:08;8.70;99.90
39033;DHT22;24794;51.982;5.878;2024-01-30T02:18:08;8.70;99.90
39033;DHT22;24794;51.982;5.878;2024-01-30T02:19:09;8.80;99.90
39033;DHT22;24794;51.982;5.878;2024-01-30T02:20:10;8.70;99.90
39033;DHT22;24794;51.982;5.878;2024-01-30T02:21:11;8.70;99.90
39033;DHT22;24794;51.982;5.878;2024-01-30T02:22:12;8.70;99.90
39033;DHT22;24794;51.982;5.878;2024-01-30T02:23:15;8.70;99.90
39033;DHT22;24794;51.982;5.878;2024-01-30T02:24:16;8.70;99.90
39033;DHT22;24794;51.982;5.878;2024-01-30T02:25:16;8.70;99.90
39033;DHT22;24794;51.982;5.878;2024-01-30T02:26:17;8.70;99.90
39033;DHT22;24794;51.982;5.878;2024-01-30T02:27:17;8.70;99.90
39033;DHT22;24794;51.982;5.878;2024-01-30T02:28:18;8.70;99.90
39033;DHT22;24794;51.982;5.878;2024-01-30T02:29:19;8.60;99.90
39033;DHT22;24794;51.982;5.878;2024-01-30T02:30:20;8.60;99.90
39033;DHT22;24794;51.982;5.878;2024-01-30T02:31:20;8.70;99.90
39033;DHT22;24794;51.982;5.878;2024-01-30T02:32:21;8.60;99.90
39033;DHT22;24794;51.982;5.878;2024-01-30T02:33:21;8.60;99.90
39033;DHT22;24794;51.982;5.878;2024-01-30T02:34:23;8.60;99.90
39033;DHT22;24794;51.982;5.878;2024-01-30T02:35:24;8.60;99.90
39033;DHT22;24794;51.982;5.878;2024-01-30T02:36:24;8.60;99.90
39033;DHT22;24794;51.982;5.878;2024-01-30T02:37:25;8.60;99.90
39033;DHT22;24794;51.982;5.878;2024-01-30T02:38:25;8.60;99.90
39033;DHT22;24794;51.982;5.878;2024-01-30T02:39:27;8.60;99.90
39033;DHT22;24794;51.982;5.878;2024-01-30T02:40:27;8.60;99.90
39033;DHT22;24794;51.982;5.878;2024-01-30T02:41:28;8.60;99.90
39033;DHT22;24794;51.982;5.878;2024-01-30T02:42:28;8.60;99.90
39033;DHT22;24794;51.982;5.878;2024-01-30T02:43:29;8.60;99.90
39033;DHT22;24794;51.982;5.878;2024-01-30T02:44:29;8.60;99.90
39033;DHT22;24794;51.982;5.878;2024-01-30T02:45:30;8.60;99.90
39033;DHT22;24794;51.982;5.878;2024-01-30T02:46:30;8.60;99.90
39033;DHT22;24794;51.982;5.878;2024-01-30T02:47:31;8.70;99.90
39033;DHT22;24794;51.982;5.878;2024-01-30T02:48:32;8.60;99.90
39033;DHT22;24794;51.982;5.878;2024-01-30T02:49:32;8.70;99.90
39033;DHT22;24794;51.982;5.878;2024-01-30T02:50:33;8.60;99.90
39033;DHT22;24794;51.982;5.878;2024-01-30T02:51:34;8.70;99.90
39033;DHT22;24794;51.982;5.878;2024-01-30T02:52:34;8.70;99.90
39033;DHT22;24794;51.982;5.878;2024-01-30T02:53:35;8.60;99.90
39033;DHT22;24794;51.982;5.878;2024-01-30T02:54:36;8.60;99.90
39033;DHT22;24794;51.982;5.878;2024-01-30T02:55:36;8.60;99.90
39033;DHT22;24794;51.982;5.878;2024-01-30T02:56:37;8.60;99.90
39033;DHT22;24794;51.982;5.878;2024-01-30T02:57:38;8.60;99.90
39033;DHT22;24794;51.982;5.878;2024-01-30T02:58:39;8.60;99.90
39033;DHT22;24794;51.982;5.878;2024-01-30T02:59:40;8.60;99.90
39033;DHT22;24794;51.982;5.878;2024-01-30T03:00:42;8.60;99.90
39033;DHT22;24794;51.982;5.878;2024-01-30T03:01:43;8.60;99.90
39033;DHT22;24794;51.982;5.878;2024-01-30T03:02:44;8.60;99.90
39033;DHT22;24794;51.982;5.878;2024-01-30T03:03:45;8.60;99.90
39033;DHT22;24794;51.982;5.878;2024-01-30T03:04:46;8.60;99.90
39033;DHT22;24794;51.982;5.878;2024-01-30T03:05:47;8.60;99.90
39033;DHT22;24794;51.982;5.878;2024-01-30T03:06:47;8.60;99.90
39033;DHT22;24794;51.982;5.878;2024-01-30T03:07:48;8.60;99.90
39033;DHT22;24794;51.982;5.878;2024-01-30T03:08:48;8.60;99.90
39033;DHT22;24794;51.982;5.878;2024-01-30T03:09:49;8.60;99.90
39033;DHT22;24794;51.982;5.878;2024-01-30T03:10:50;8.50;99.90
39033;DHT22;24794;51.982;5.878;2024-01-30T03:11:50;8.60;99.90
39033;DHT22;24794;51.982;5.878;2024-01-30T03:12:51;8.50;99.90
39033;DHT22;24794;51.982;5.878;2024-01-30T03:13:51;8.50;99.90
39033;DHT22;24794;51.982;5.878;2024-01-30T03:14:52;8.50;99.90
39033;DHT22;24794;51.982;5.878;2024-01-30T03:15:52;8.50;99.90
39033;DHT22;24794;51.982;5.878;2024-01-30T03:16:53;8.50;99.90
39033;DHT22;24794;51.982;5.878;2024-01-30T03:17:54;8.50;99.90
39033;DHT22;24794;51.982;5.878;2024-01-30T03:18:54;8.50;99.90
39033;DHT22;24794;51.982;5.878;2024-01-30T03:19:55;8.60;99.90
39033;DHT22;24794;51.982;5.878;2024-01-30T03:20:55;8.50;99.90
39033;DHT22;24794;51.982;5.878;2024-01-30T03:21:56;8.50;99.90
39033;DHT22;24794;51.982;5.878;2024-01-30T03:22:56;8.50;99.90
39033;DHT22;24794;51.982;5.878;2024-01-30T03:23:57;8.50;99.90
39033;DHT22;24794;51.982;5.878;2024-01-30T03:24:57;8.50;99.90
39033;DHT22;24794;51.982;5.878;2024-01-30T03:25:58;8.50;99.90
39033;DHT22;24794;51.982;5.878;2024-01-30T03:26:59;8.50;99.90
39033;DHT22;24794;51.982;5.878;2024-01-30T03:27:59;8.50;99.90
39033;DHT22;24794;51.982;5.878;2024-01-30T03:29:00;8.50;99.90
39033;DHT22;24794;51.982;5.878;2024-01-30T03:30:00;8.50;99.90
39033;DHT22;24794;51.982;5.878;2024-01-30T03:31:01;8.50;99.90
39033;DHT22;24794;51.982;5.878;2024-01-30T03:32:02;8.40;99.90
39033;DHT22;24794;51.982;5.878;2024-01-30T03:33:04;8.40;99.90
39033;DHT22;24794;51.982;5.878;2024-01-30T03:34:05;8.40;99.90
39033;DHT22;24794;51.982;5.878;2024-01-30T03:35:05;8.40;99.90
39033;DHT22;24794;51.982;5.878;2024-01-30T03:36:07;8.40;99.90
39033;DHT22;24794;51.982;5.878;2024-01-30T03:37:08;8.40;99.90
39033;DHT22;24794;51.982;5.878;2024-01-30T03:38:08;8.40;99.90
39033;DHT22;24794;51.982;5.878;2024-01-30T03:39:09;8.40;99.90
39033;DHT22;24794;51.982;5.878;2024-01-30T03:40:10;8.40;99.90
39033;DHT22;24794;51.982;5.878;2024-01-30T03:41:10;8.40;99.90
39033;DHT22;24794;51.982;5.878;2024-01-30T03:42:11;8.40;99.90
39033;DHT22;24794;51.982;5.878;2024-01-30T03:43:11;8.40;99.90
39033;DHT22;24794;51.982;5.878;2024-01-30T03:44:12;8.40;99.90
39033;DHT22;24794;51.982;5.878;2024-01-30T03:45:12;8.40;99.90
39033;DHT22;24794;51.982;5.878;2024-01-30T03:46:13;8.40;99.90
39033;DHT22;24794;51.982;5.878;2024-01-30T03:47:14;8.40;99.90
39033;DHT22;24794;51.982;5.878;2024-01-30T03:48:14;8.40;99.90
39033;DHT22;24794;51.982;5.878;2024-01-30T03:49:15;8.40;99.90
39033;DHT22;24794;51.982;5.878;2024-01-30T03:50:15;8.40;99.90
39033;DHT22;24794;51.982;5.878;2024-01-30T03:51:16;8.40;99.90
39033;DHT22;24794;51.982;5.878;2024-01-30T03:52:17;8.40;99.90
39033;DHT22;24794;51.982;5.878;2024-01-30T03:53:17;8.40;99.90
39033;DHT22;24794;51.982;5.878;2024-01-30T03:54:18;8.40;99.90
39033;DHT22;24794;51.982;5.878;2024-01-30T03:55:19;8.40;99.90
39033;DHT22;24794;51.982;5.878;2024-01-30T03:56:19;8.40;99.90
39033;DHT22;24794;51.982;5.878;2024-01-30T03:57:20;8.40;99.90
39033;DHT22;24794;51.982;5.878;2024-01-30T03:58:20;8.40;99.90
39033;DHT22;24794;51.982;5.878;2024-01-30T03:59:21;8.40;99.90
39033;DHT22;24794;51.982;5.878;2024-01-30T04:00:24;8.40;99.90
39033;DHT22;24794;51.982;5.878;2024-01-30T04:01:24;8.40;99.90
39033;DHT22;24794;51.982;5.878;2024-01-30T04:02:25;8.40;99.90
39033;DHT22;24794;51.982;5.878;2024-01-30T04:03:26;8.40;99.90
39033;DHT22;24794;51.982;5.878;2024-01-30T04:04:26;8.40;99.90
39033;DHT22;24794;51.982;5.878;2024-01-30T04:05:27;8.40;99.90
39033;DHT22;24794;51.982;5.878;2024-01-30T04:06:27;8.40;99.90
39033;DHT22;24794;51.982;5.878;2024-01-30T04:07:28;8.40;99.90
39033;DHT22;24794;51.982;5.878;2024-01-30T04:08:29;8.40;99.90
39033;DHT22;24794;51.982;5.878;2024-01-30T04:09:30;8.40;99.90
39033;DHT22;24794;51.982;5.878;2024-01-30T04:10:30;8.40;99.90
39033;DHT22;24794;51.982;5.878;2024-01-30T04:11:31;8.40;99.90
39033;DHT22;24794;51.982;5.878;2024-01-30T04:12:31;8.40;99.90
39033;DHT22;24794;51.982;5.878;2024-01-30T04:13:33;8.50;99.90
39033;DHT22;24794;51.982;5.878;2024-01-30T04:14:33;8.40;99.90
39033;DHT22;24794;51.982;5.878;2024-01-30T04:15:34;8.50;99.90
39033;DHT22;24794;51.982;5.878;2024-01-30T04:16:35;8.50;99.90
39033;DHT22;24794;51.982;5.878;2024-01-30T04:17:36;8.50;99.90
39033;DHT22;24794;51.982;5.878;2024-01-30T04:18:37;8.50;99.90
39033;DHT22;24794;51.982;5.878;2024-01-30T04:19:37;8.50;99.90
39033;DHT22;24794;51.982;5.878;2024-01-30T04:20:39;8.50;99.90
39033;DHT22;24794;51.982;5.878;2024-01-30T04:21:39;8.50;99.90
39033;DHT22;24794;51.982;5.878;2024-01-30T04:22:40;8.50;99.90
39033;DHT22;24794;51.982;5.878;2024-01-30T04:23:41;8.50;99.90
39033;DHT22;24794;51.982;5.878;2024-01-30T04:24:42;8.50;99.90
39033;DHT22;24794;51.982;5.878;2024-01-30T04:25:42;8.50;99.90
39033;DHT22;24794;51.982;5.878;2024-01-30T04:26:43;8.50;99.90
39033;DHT22;24794;51.982;5.878;2024-01-30T04:27:43;8.50;99.90
39033;DHT22;24794;51.982;5.878;2024-01-30T04:28:45;8.50;99.90
39033;DHT22;24794;51.982;5.878;2024-01-30T04:29:45;8.40;99.90
39033;DHT22;24794;51.982;5.878;2024-01-30T04:30:46;8.50;99.90
39033;DHT22;24794;51.982;5.878;2024-01-30T04:31:46;8.50;99.90
39033;DHT22;24794;51.982;5.878;2024-01-30T04:32:47;8.50;99.90
39033;DHT22;24794;51.982;5.878;2024-01-30T04:33:47;8.50;99.90
39033;DHT22;24794;51.982;5.878;2024-01-30T04:34:48;8.50;99.90
39033;DHT22;24794;51.982;5.878;2024-01-30T04:35:48;8.50;99.90
39033;DHT22;24794;51.982;5.878;2024-01-30T04:36:49;8.50;99.90
39033;DHT22;24794;51.982;5.878;2024-01-30T04:37:52;8.50;99.90
39033;DHT22;24794;51.982;5.878;2024-01-30T04:38:52;8.50;99.90
39033;DHT22;24794;51.982;5.878;2024-01-30T04:39:53;8.50;99.90
39033;DHT22;24794;51.982;5.878;2024-01-30T04:40:54;8.50;99.90
39033;DHT22;24794;51.982;5.878;2024-01-30T04:41:54;8.50;99.90
39033;DHT22;24794;51.982;5.878;2024-01-30T04:42:55;8.50;99.90
39033;DHT22;24794;51.982;5.878;2024-01-30T04:43:55;8.50;99.90
39033;DHT22;24794;51.982;5.878;2024-01-30T04:44:56;8.50;99.90
39033;DHT22;24794;51.982;5.878;2024-01-30T04:45:56;8.50;99.90
39033;DHT22;24794;51.982;5.878;2024-01-30T04:46:57;8.50;99.90
39033;DHT22;24794;51.982;5.878;2024-01-30T04:48:01;8.50;99.90
39033;DHT22;24794;51.982;5.878;2024-01-30T04:49:02;8.50;99.90
39033;DHT22;24794;51.982;5.878;2024-01-30T04:50:04;8.40;99.90
39033;DHT22;24794;51.982;5.878;2024-01-30T04:51:05;8.50;99.90
39033;DHT22;24794;51.982;5.878;2024-01-30T04:52:09;8.50;99.90
39033;DHT22;24794;51.982;5.878;2024-01-30T04:53:09;8.50;99.90
39033;DHT22;24794;51.982;5.878;2024-01-30T04:54:10;8.50;99.90
39033;DHT22;24794;51.982;5.878;2024-01-30T04:55:10;8.50;99.90
39033;DHT22;24794;51.982;5.878;2024-01-30T04:56:11;8.50;99.90
39033;DHT22;24794;51.982;5.878;2024-01-30T04:57:11;8.50;99.90
39033;DHT22;24794;51.982;5.878;2024-01-30T04:58:12;8.50;99.90
39033;DHT22;24794;51.982;5.878;2024-01-30T04:59:13;8.50;99.90
39033;DHT22;24794;51.982;5.878;2024-01-30T05:00:13;8.50;99.90
39033;DHT22;24794;51.982;5.878;2024-01-30T05:01:17;8.50;99.90
39033;DHT22;24794;51.982;5.878;2024-01-30T05:02:17;8.50;99.90
39033;DHT22;24794;51.982;5.878;2024-01-30T05:03:19;8.50;99.90
39033;DHT22;24794;51.982;5.878;2024-01-30T05:04:20;8.50;99.90
39033;DHT22;24794;51.982;5.878;2024-01-30T05:05:20;8.50;99.90
39033;DHT22;24794;51.982;5.878;2024-01-30T05:06:26;8.50;99.90
39033;DHT22;24794;51.982;5.878;2024-01-30T05:07:26;8.50;99.90
39033;DHT22;24794;51.982;5.878;2024-01-30T05:08:27;8.60;99.90
39033;DHT22;24794;51.982;5.878;2024-01-30T05:09:28;8.60;99.90
39033;DHT22;24794;51.982;5.878;2024-01-30T05:10:29;8.60;99.90
39033;DHT22;24794;51.982;5.878;2024-01-30T05:11:30;8.60;99.90
39033;DHT22;24794;51.982;5.878;2024-01-30T05:12:31;8.60;99.90
39033;DHT22;24794;51.982;5.878;2024-01-30T05:13:32;8.60;99.90
39033;DHT22;24794;51.982;5.878;2024-01-30T05:14:32;8.60;99.90
39033;DHT22;24794;51.982;5.878;2024-01-30T05:15:33;8.60;99.90
39033;DHT22;24794;51.982;5.878;2024-01-30T05:16:33;8.60;99.90
39033;DHT22;24794;51.982;5.878;2024-01-30T05:17:34;8.60;99.90
39033;DHT22;24794;51.982;5.878;2024-01-30T05:18:34;8.60;99.90
39033;DHT22;24794;51.982;5.878;2024-01-30T05:19:35;8.60;99.90
39033;DHT22;24794;51.982;5.878;2024-01-30T05:20:35;8.60;99.90
39033;DHT22;24794;51.982;5.878;2024-01-30T05:21:36;8.60;99.90
39033;DHT22;24794;51.982;5.878;2024-01-30T05:22:36;8.60;99.90
39033;DHT22;24794;51.982;5.878;2024-01-30T05:23:37;8.60;99.90
39033;DHT22;24794;51.982;5.878;2024-01-30T05:24:37;8.60;99.90
39033;DHT22;24794;51.982;5.878;2024-01-30T05:25:38;8.60;99.90
39033;DHT22;24794;51.982;5.878;2024-01-30T05:26:39;8.70;99.90
39033;DHT22;24794;51.982;5.878;2024-01-30T05:27:39;8.70;99.90
39033;DHT22;24794;51.982;5.878;2024-01-30T05:28:40;8.70;99.90
39033;DHT22;24794;51.982;5.878;2024-01-30T05:29:40;8.70;99.90
39033;DHT22;24794;51.982;5.878;2024-01-30T05:30:41;8.70;99.90
39033;DHT22;24794;51.982;5.878;2024-01-30T05:31:42;8.70;99.90
39033;DHT22;24794;51.982;5.878;2024-01-30T05:32:43;8.70;99.90
39033;DHT22;24794;51.982;5.878;2024-01-30T05:33:44;8.70;99.90
39033;DHT22;24794;51.982;5.878;2024-01-30T05:34:44;8.70;99.90
39033;DHT22;24794;51.982;5.878;2024-01-30T05:35:45;8.70;99.90
39033;DHT22;24794;51.982;5.878;2024-01-30T05:36:46;8.70;99.90
39033;DHT22;24794;51.982;5.878;2024-01-30T05:37:48;8.70;99.90
39033;DHT22;24794;51.982;5.878;2024-01-30T05:38:49;8.70;99.90
39033;DHT22;24794;51.982;5.878;2024-01-30T05:39:49;8.70;99.90
39033;DHT22;24794;51.982;5.878;2024-01-30T05:40:50;8.70;99.90
39033;DHT22;24794;51.982;5.878;2024-01-30T05:41:50;8.70;99.90
39033;DHT22;24794;51.982;5.878;2024-01-30T05:42:51;8.80;99.90
39033;DHT22;24794;51.982;5.878;2024-01-30T05:43:54;8.70;99.90
39033;DHT22;24794;51.982;5.878;2024-01-30T05:44:55;8.70;99.90
39033;DHT22;24794;51.982;5.878;2024-01-30T05:45:55;8.70;99.90
39033;DHT22;24794;51.982;5.878;2024-01-30T05:46:56;8.80;99.90
39033;DHT22;24794;51.982;5.878;2024-01-30T05:47:56;8.70;99.90
39033;DHT22;24794;51.982;5.878;2024-01-30T05:48:57;8.70;99.90
39033;DHT22;24794;51.982;5.878;2024-01-30T05:49:57;8.70;99.90
39033;DHT22;24794;51.982;5.878;2024-01-30T05:50:58;8.70;99.90
39033;DHT22;24794;51.982;5.878;2024-01-30T05:52:02;8.70;99.90
39033;DHT22;24794;51.982;5.878;2024-01-30T05:53:02;8.80;99.90
39033;DHT22;24794;51.982;5.878;2024-01-30T05:54:03;8.80;99.90
39033;DHT22;24794;51.982;5.878;2024-01-30T05:55:04;8.80;99.90
39033;DHT22;24794;51.982;5.878;2024-01-30T05:56:06;8.80;99.90
39033;DHT22;24794;51.982;5.878;2024-01-30T05:57:07;8.80;99.90
39033;DHT22;24794;51.982;5.878;2024-01-30T05:58:07;8.80;99.90
39033;DHT22;24794;51.982;5.878;2024-01-30T05:59:08;8.80;99.90
39033;DHT22;24794;51.982;5.878;2024-01-30T06:00:08;8.80;99.90
39033;DHT22;24794;51.982;5.878;2024-01-30T06:01:09;8.80;99.90
39033;DHT22;24794;51.982;5.878;2024-01-30T06:02:13;8.80;99.90
39033;DHT22;24794;51.982;5.878;2024-01-30T06:03:13;8.80;99.90
39033;DHT22;24794;51.982;5.878;2024-01-30T06:04:14;8.80;99.90
39033;DHT22;24794;51.982;5.878;2024-01-30T06:05:15;8.80;99.90
39033;DHT22;24794;51.982;5.878;2024-01-30T06:06:16;8.80;99.90
39033;DHT22;24794;51.982;5.878;2024-01-30T06:07:16;8.80;99.90
39033;DHT22;24794;51.982;5.878;2024-01-30T06:08:18;8.80;99.90
39033;DHT22;24794;51.982;5.878;2024-01-30T06:09:18;8.80;99.90
39033;DHT22;24794;51.982;5.878;2024-01-30T06:10:19;8.80;99.90
39033;DHT22;24794;51.982;5.878;2024-01-30T06:11:19;8.90;99.90
39033;DHT22;24794;51.982;5.878;2024-01-30T06:12:20;8.90;99.90
39033;DHT22;24794;51.982;5.878;2024-01-30T06:13:20;8.90;99.90
39033;DHT22;24794;51.982;5.878;2024-01-30T06:14:21;8.90;99.90
39033;DHT22;24794;51.982;5.878;2024-01-30T06:15:21;8.90;99.90
39033;DHT22;24794;51.982;5.878;2024-01-30T06:16:22;8.90;99.90
39033;DHT22;24794;51.982;5.878;2024-01-30T06:17:23;8.90;99.90
39033;DHT22;24794;51.982;5.878;2024-01-30T06:18:24;8.90;99.90
39033;DHT22;24794;51.982;5.878;2024-01-30T06:19:24;8.90;99.90
39033;DHT22;24794;51.982;5.878;2024-01-30T06:20:25;8.90;99.90
39033;DHT22;24794;51.982;5.878;2024-01-30T06:21:26;8.90;99.90
39033;DHT22;24794;51.982;5.878;2024-01-30T06:22:26;8.90;99.90
39033;DHT22;24794;51.982;5.878;2024-01-30T06:23:27;8.90;99.90
39033;DHT22;24794;51.982;5.878;2024-01-30T06:24:27;9.00;99.90
39033;DHT22;24794;51.982;5.878;2024-01-30T06:25:28;9.00;99.90
39033;DHT22;24794;51.982;5.878;2024-01-30T06:26:29;9.00;99.90
39033;DHT22;24794;51.982;5.878;2024-01-30T06:27:29;9.00;99.90
39033;DHT22;24794;51.982;5.878;2024-01-30T06:28:30;9.00;99.90
39033;DHT22;24794;51.982;5.878;2024-01-30T06:29:30;9.00;99.90